sensor_id;sensor_type;location;lat;lon;timestamp;pressure;altitude;pressure_sealevel;temperature;humidity
54465;BME280;40374;49.480;20.016;2023-07-09T00:00:00;62409.59;;;-145.97;100.00
54465;BME280;40374;49.480;20.016;2023-07-09T00:03:27;62409.59;;;-145.97;100.00
54465;BME280;40374;49.480;20.016;2023-07-09T00:06:53;62409.59;;;-145.97;100.00
54465;BME280;40374;49.480;20.016;2023-07-09T00:10:21;62409.59;;;-145.97;100.00
54465;BME280;40374;49.480;20.016;2023-07-09T00:13:47;62409.59;;;-145.97;100.00
54465;BME280;40374;49.480;20.016;2023-07-09T00:17:27;62409.59;;;-145.97;100.00
54465;BME280;40374;49.480;20.016;2023-07-09T00:20:54;62409.59;;;-145.97;100.00
54465;BME280;40374;49.480;20.016;2023-07-09T00:24:20;62409.59;;;-145.97;100.00
54465;BME280;40374;49.480;20.016;2023-07-09T00:27:46;62409.59;;;-145.97;100.00
54465;BME280;40374;49.480;20.016;2023-07-09T00:31:17;62409.59;;;-145.97;100.00
54465;BME280;40374;49.480;20.016;2023-07-09T00:34:43;62409.59;;;-145.97;100.00
54465;BME280;40374;49.480;20.016;2023-07-09T00:38:19;62409.59;;;-145.97;100.00
54465;BME280;40374;49.480;20.016;2023-07-09T00:41:57;62409.59;;;-145.97;100.00
54465;BME280;40374;49.480;20.016;2023-07-09T00:45:30;62409.59;;;-145.97;100.00
54465;BME280;40374;49.480;20.016;2023-07-09T00:49:04;62409.59;;;-145.97;100.00
54465;BME280;40374;49.480;20.016;2023-07-09T00:53:28;62409.59;;;-145.97;100.00
54465;BME280;40374;49.480;20.016;2023-07-09T00:56:31;62409.59;;;-145.97;100.00
54465;BME280;40374;49.480;20.016;2023-07-09T01:00:03;62409.59;;;-145.97;100.00
54465;BME280;40374;49.480;20.016;2023-07-09T01:03:40;62409.59;;;-145.97;100.00
54465;BME280;40374;49.480;20.016;2023-07-09T01:07:08;62409.59;;;-145.97;100.00
54465;BME280;40374;49.480;20.016;2023-07-09T01:10:34;62409.59;;;-145.97;100.00
54465;BME280;40374;49.480;20.016;2023-07-09T01:14:01;62409.59;;;-145.97;100.00
54465;BME280;40374;49.480;20.016;2023-07-09T01:17:36;62409.59;;;-145.97;100.00
54465;BME280;40374;49.480;20.016;2023-07-09T01:21:07;62409.59;;;-145.97;100.00
54465;BME280;40374;49.480;20.016;2023-07-09T01:24:53;62409.59;;;-145.97;100.00
54465;BME280;40374;49.480;20.016;2023-07-09T08:46:50;95475.50;;;26.73;46.41
54465;BME280;40374;49.480;20.016;2023-07-09T08:49:40;95475.50;;;26.73;46.41
54465;BME280;40374;49.480;20.016;2023-07-09T08:52:26;95474.53;;;27.83;39.80
54465;BME280;40374;49.480;20.016;2023-07-09T08:54:57;95462.81;;;27.93;37.67
54465;BME280;40374;49.480;20.016;2023-07-09T08:57:33;95474.06;;;28.15;37.08
54465;BME280;40374;49.480;20.016;2023-07-09T09:05:32;95458.63;;;28.55;34.15
54465;BME280;40374;49.480;20.016;2023-07-09T09:57:51;95471.22;;;31.18;35.27
54465;BME280;40374;49.480;20.016;2023-07-09T10:00:26;95479.16;;;31.23;36.28
54465;BME280;40374;49.480;20.016;2023-07-09T10:02:59;95467.31;;;30.90;35.41
54465;BME280;40374;49.480;20.016;2023-07-09T10:27:57;95460.47;;;33.47;32.19
54465;BME280;40374;49.480;20.016;2023-07-09T10:30:45;95444.97;;;34.34;28.42
54465;BME280;40374;49.480;20.016;2023-07-09T10:34:09;95450.88;;;34.87;28.56
54465;BME280;40374;49.480;20.016;2023-07-09T10:36:30;95451.59;;;35.55;27.82
54465;BME280;40374;49.480;20.016;2023-07-09T10:39:10;95454.63;;;35.84;28.58
54465;BME280;40374;49.480;20.016;2023-07-09T10:41:42;95450.00;;;36.47;28.90
54465;BME280;40374;49.480;20.016;2023-07-09T10:44:11;95460.34;;;36.66;28.87
54465;BME280;40374;49.480;20.016;2023-07-09T10:46:45;95452.63;;;37.03;27.76
54465;BME280;40374;49.480;20.016;2023-07-09T10:49:15;95444.16;;;36.25;25.57
54465;BME280;40374;49.480;20.016;2023-07-09T10:51:53;95433.72;;;36.91;27.27
54465;BME280;40374;49.480;20.016;2023-07-09T10:57:17;95426.00;;;37.53;24.26
54465;BME280;40374;49.480;20.016;2023-07-09T10:59:49;95421.75;;;38.16;26.74
54465;BME280;40374;49.480;20.016;2023-07-09T11:02:30;95406.28;;;38.60;27.15
54465;BME280;40374;49.480;20.016;2023-07-09T11:05:03;95410.25;;;39.54;25.40
54465;BME280;40374;49.480;20.016;2023-07-09T11:10:14;95416.91;;;40.91;24.97
54465;BME280;40374;49.480;20.016;2023-07-09T11:13:03;95415.03;;;41.71;24.00
54465;BME280;40374;49.480;20.016;2023-07-09T11:15:39;95417.34;;;42.00;23.79
54465;BME280;40374;49.480;20.016;2023-07-09T11:18:14;95410.47;;;42.83;23.92
54465;BME280;40374;49.480;20.016;2023-07-09T11:20:45;95412.94;;;42.66;23.23
54465;BME280;40374;49.480;20.016;2023-07-09T11:23:19;95421.94;;;41.70;22.88
54465;BME280;40374;49.480;20.016;2023-07-09T11:25:49;95414.09;;;41.00;22.19
54465;BME280;40374;49.480;20.016;2023-07-09T11:28:36;95417.13;;;39.53;21.20
54465;BME280;40374;49.480;20.016;2023-07-09T11:33:27;95398.78;;;37.92;24.91
54465;BME280;40374;49.480;20.016;2023-07-09T11:36:11;95395.22;;;38.78;24.20
54465;BME280;40374;49.480;20.016;2023-07-09T11:38:41;95406.16;;;39.77;23.97
54465;BME280;40374;49.480;20.016;2023-07-09T11:46:44;95401.75;;;42.47;22.07
54465;BME280;40374;49.480;20.016;2023-07-09T11:49:15;95400.94;;;43.19;21.80
54465;BME280;40374;49.480;20.016;2023-07-09T11:51:46;95409.13;;;44.01;20.41
54465;BME280;40374;49.480;20.016;2023-07-09T11:54:18;95402.81;;;44.41;21.04
54465;BME280;40374;49.480;20.016;2023-07-09T11:56:57;95403.31;;;44.40;21.49
54465;BME280;40374;49.480;20.016;2023-07-09T11:59:25;95394.78;;;43.89;21.94
54465;BME280;40374;49.480;20.016;2023-07-09T12:01:53;95402.09;;;43.96;22.55
54465;BME280;40374;49.480;20.016;2023-07-09T12:04:26;95390.63;;;44.20;21.66
54465;BME280;40374;49.480;20.016;2023-07-09T12:07:00;95391.88;;;44.34;20.76
54465;BME280;40374;49.480;20.016;2023-07-09T12:09:46;95385.19;;;43.87;22.24
54465;BME280;40374;49.480;20.016;2023-07-09T12:12:26;95389.97;;;43.81;21.34
54465;BME280;40374;49.480;20.016;2023-07-09T12:14:55;95375.44;;;42.23;21.09
54465;BME280;40374;49.480;20.016;2023-07-09T12:17:25;95387.44;;;40.92;21.50
54465;BME280;40374;49.480;20.016;2023-07-09T12:19:54;95385.47;;;39.27;22.42
54465;BME280;40374;49.480;20.016;2023-07-09T12:28:29;95373.09;;;40.00;24.80
54465;BME280;40374;49.480;20.016;2023-07-09T12:30:57;95378.28;;;39.70;23.87
54465;BME280;40374;49.480;20.016;2023-07-09T12:33:27;95369.41;;;39.27;24.60
54465;BME280;40374;49.480;20.016;2023-07-09T12:35:58;95374.56;;;39.07;23.95
54465;BME280;40374;49.480;20.016;2023-07-09T12:38:29;95377.41;;;38.94;24.82
54465;BME280;40374;49.480;20.016;2023-07-09T12:41:00;95374.22;;;39.27;24.34
54465;BME280;40374;49.480;20.016;2023-07-09T12:43:30;95364.34;;;39.97;24.04
54465;BME280;40374;49.480;20.016;2023-07-09T12:45:59;95362.06;;;41.10;23.15
54465;BME280;40374;49.480;20.016;2023-07-09T12:48:28;95357.38;;;40.89;22.98
54465;BME280;40374;49.480;20.016;2023-07-09T12:50:59;95352.88;;;39.92;23.96
54465;BME280;40374;49.480;20.016;2023-07-09T12:53:29;95368.53;;;38.61;24.99
54465;BME280;40374;49.480;20.016;2023-07-09T12:56:00;95356.34;;;37.23;25.62
54465;BME280;40374;49.480;20.016;2023-07-09T12:58:33;95368.78;;;36.63;26.31
54465;BME280;40374;49.480;20.016;2023-07-09T13:01:17;95365.97;;;36.14;25.07
54465;BME280;40374;49.480;20.016;2023-07-09T13:03:55;95349.84;;;35.85;26.94
54465;BME280;40374;49.480;20.016;2023-07-09T13:08:59;95354.22;;;34.46;27.73
54465;BME280;40374;49.480;20.016;2023-07-09T13:16:02;95349.84;;;34.89;29.48
54465;BME280;40374;49.480;20.016;2023-07-09T13:18:13;95349.56;;;35.43;27.67
54465;BME280;40374;49.480;20.016;2023-07-09T13:20:44;95353.34;;;35.89;27.86
54465;BME280;40374;49.480;20.016;2023-07-09T13:23:30;95364.09;;;37.02;26.02
54465;BME280;40374;49.480;20.016;2023-07-09T13:25:58;95353.50;;;37.90;25.25
54465;BME280;40374;49.480;20.016;2023-07-09T13:28:28;95348.00;;;38.25;24.86
54465;BME280;40374;49.480;20.016;2023-07-09T13:33:33;62409.59;;;-145.97;100.00
54465;BME280;40374;49.480;20.016;2023-07-09T13:36:00;95355.19;;;41.21;23.01
54465;BME280;40374;49.480;20.016;2023-07-09T13:38:28;95362.94;;;41.53;21.32
54465;BME280;40374;49.480;20.016;2023-07-09T13:41:00;62409.59;;;-145.97;100.00
54465;BME280;40374;49.480;20.016;2023-07-09T13:43:31;95350.59;;;42.60;21.34
54465;BME280;40374;49.480;20.016;2023-07-09T13:46:01;95352.47;;;43.02;19.51
54465;BME280;40374;49.480;20.016;2023-07-09T13:48:32;95361.25;;;42.89;20.69
54465;BME280;40374;49.480;20.016;2023-07-09T13:51:00;95346.97;;;43.23;20.04
54465;BME280;40374;49.480;20.016;2023-07-09T13:53:31;95359.09;;;43.83;19.85
54465;BME280;40374;49.480;20.016;2023-07-09T13:55:59;95348.88;;;44.21;19.78
54465;BME280;40374;49.480;20.016;2023-07-09T13:58:27;95356.97;;;44.63;19.69
54465;BME280;40374;49.480;20.016;2023-07-09T14:00:58;95354.47;;;45.12;19.17
54465;BME280;40374;49.480;20.016;2023-07-09T14:03:34;95344.84;;;44.63;18.78
54465;BME280;40374;49.480;20.016;2023-07-09T14:06:02;95351.06;;;44.11;19.23
54465;BME280;40374;49.480;20.016;2023-07-09T14:08:30;95353.13;;;43.95;19.85
54465;BME280;40374;49.480;20.016;2023-07-09T14:10:57;95356.53;;;43.99;20.45
54465;BME280;40374;49.480;20.016;2023-07-09T14:13:25;95355.06;;;44.04;19.44
54465;BME280;40374;49.480;20.016;2023-07-09T14:15:53;95346.19;;;43.96;19.29
54465;BME280;40374;49.480;20.016;2023-07-09T14:18:22;95344.56;;;43.60;18.98
54465;BME280;40374;49.480;20.016;2023-07-09T14:20:50;95341.22;;;43.32;19.44
54465;BME280;40374;49.480;20.016;2023-07-09T14:23:19;95336.97;;;43.12;18.97
54465;BME280;40374;49.480;20.016;2023-07-09T14:25:47;95333.75;;;42.66;19.52
54465;BME280;40374;49.480;20.016;2023-07-09T14:28:20;95345.94;;;42.24;20.02
54465;BME280;40374;49.480;20.016;2023-07-09T14:30:49;95329.97;;;42.11;20.88
54465;BME280;40374;49.480;20.016;2023-07-09T14:33:20;95333.94;;;42.29;21.30
54465;BME280;40374;49.480;20.016;2023-07-09T14:35:49;95341.38;;;41.84;20.03
54465;BME280;40374;49.480;20.016;2023-07-09T14:38:22;95336.81;;;41.86;21.09
54465;BME280;40374;49.480;20.016;2023-07-09T14:40:52;95340.03;;;42.36;21.11
54465;BME280;40374;49.480;20.016;2023-07-09T14:43:22;95338.16;;;42.82;20.31
54465;BME280;40374;49.480;20.016;2023-07-09T14:45:49;95342.88;;;42.61;20.74
54465;BME280;40374;49.480;20.016;2023-07-09T14:48:19;95343.59;;;42.46;20.23
54465;BME280;40374;49.480;20.016;2023-07-09T14:50:47;95331.78;;;42.24;20.47
54465;BME280;40374;49.480;20.016;2023-07-09T14:53:27;95330.09;;;41.84;21.28
54465;BME280;40374;49.480;20.016;2023-07-09T14:55:54;95345.75;;;41.33;20.95
54465;BME280;40374;49.480;20.016;2023-07-09T14:58:23;95341.03;;;41.11;22.03
54465;BME280;40374;49.480;20.016;2023-07-09T15:00:51;95340.59;;;40.85;21.85
54465;BME280;40374;49.480;20.016;2023-07-09T15:03:23;95338.06;;;40.78;21.45
54465;BME280;40374;49.480;20.016;2023-07-09T15:05:52;95322.47;;;40.18;21.88
54465;BME280;40374;49.480;20.016;2023-07-09T15:08:23;95337.84;;;39.54;22.76
54465;BME280;40374;49.480;20.016;2023-07-09T15:10:53;95332.59;;;38.77;23.22
54465;BME280;40374;49.480;20.016;2023-07-09T15:13:33;95328.03;;;37.85;23.99
54465;BME280;40374;49.480;20.016;2023-07-09T15:16:03;95329.28;;;36.87;24.25
54465;BME280;40374;49.480;20.016;2023-07-09T15:18:32;95329.38;;;36.05;24.71
54465;BME280;40374;49.480;20.016;2023-07-09T15:21:03;95328.59;;;35.51;25.37
54465;BME280;40374;49.480;20.016;2023-07-09T16:44:12;95312.69;;;27.45;38.66
54465;BME280;40374;49.480;20.016;2023-07-09T16:46:41;95304.97;;;27.65;38.87
54465;BME280;40374;49.480;20.016;2023-07-09T16:49:36;95315.06;;;27.87;38.43
54465;BME280;40374;49.480;20.016;2023-07-09T16:52:24;95303.09;;;27.76;37.91
54465;BME280;40374;49.480;20.016;2023-07-09T16:54:54;95319.22;;;27.70;39.22
54465;BME280;40374;49.480;20.016;2023-07-09T16:57:26;95311.78;;;27.78;38.02
54465;BME280;40374;49.480;20.016;2023-07-09T17:00:12;95315.69;;;27.70;38.42
54465;BME280;40374;49.480;20.016;2023-07-09T17:02:45;95315.97;;;27.58;39.74
54465;BME280;40374;49.480;20.016;2023-07-09T17:05:13;95322.31;;;27.62;40.35
54465;BME280;40374;49.480;20.016;2023-07-09T17:07:41;95313.53;;;27.52;40.56
54465;BME280;40374;49.480;20.016;2023-07-09T17:10:11;95315.81;;;27.43;41.41
54465;BME280;40374;49.480;20.016;2023-07-09T17:12:41;95322.41;;;27.31;41.19
54465;BME280;40374;49.480;20.016;2023-07-09T17:15:24;95313.69;;;27.29;40.40
54465;BME280;40374;49.480;20.016;2023-07-09T17:17:54;95314.94;;;27.32;40.94
54465;BME280;40374;49.480;20.016;2023-07-09T17:20:24;95317.59;;;27.25;39.26
54465;BME280;40374;49.480;20.016;2023-07-09T17:22:55;95310.06;;;27.22;40.66
54465;BME280;40374;49.480;20.016;2023-07-09T17:27:58;95304.03;;;27.12;38.74
54465;BME280;40374;49.480;20.016;2023-07-09T17:30:27;95314.25;;;27.08;39.77
54465;BME280;40374;49.480;20.016;2023-07-09T17:32:56;95311.88;;;27.07;39.81
54465;BME280;40374;49.480;20.016;2023-07-09T17:35:24;95309.25;;;26.84;41.65
54465;BME280;40374;49.480;20.016;2023-07-09T17:37:55;95316.59;;;26.72;42.17
54465;BME280;40374;49.480;20.016;2023-07-09T17:40:27;95314.13;;;26.64;41.64
54465;BME280;40374;49.480;20.016;2023-07-09T17:43:19;95313.88;;;26.46;43.54
54465;BME280;40374;49.480;20.016;2023-07-09T17:45:48;95315.72;;;26.38;43.63
54465;BME280;40374;49.480;20.016;2023-07-09T17:48:21;95305.25;;;26.21;43.37
54465;BME280;40374;49.480;20.016;2023-07-09T17:50:49;95309.94;;;26.20;43.07
54465;BME280;40374;49.480;20.016;2023-07-09T17:53:23;95314.19;;;26.14;42.59
54465;BME280;40374;49.480;20.016;2023-07-09T17:55:51;95310.59;;;26.10;42.77
54465;BME280;40374;49.480;20.016;2023-07-09T17:58:31;95311.34;;;26.33;44.30
54465;BME280;40374;49.480;20.016;2023-07-09T18:01:03;95304.97;;;26.29;44.55
54465;BME280;40374;49.480;20.016;2023-07-09T18:03:32;95300.53;;;26.21;45.54
54465;BME280;40374;49.480;20.016;2023-07-09T18:06:00;95304.56;;;26.01;44.80
54465;BME280;40374;49.480;20.016;2023-07-09T18:08:29;95303.41;;;26.02;44.80
54465;BME280;40374;49.480;20.016;2023-07-09T18:10:57;95303.59;;;25.66;45.62
54465;BME280;40374;49.480;20.016;2023-07-09T18:13:28;95292.34;;;25.75;46.15
54465;BME280;40374;49.480;20.016;2023-07-09T18:15:57;95294.00;;;25.57;46.18
54465;BME280;40374;49.480;20.016;2023-07-09T18:18:26;95295.34;;;25.43;46.33
54465;BME280;40374;49.480;20.016;2023-07-09T18:20:53;95306.84;;;25.26;45.06
54465;BME280;40374;49.480;20.016;2023-07-09T18:23:21;95292.22;;;25.02;45.54
54465;BME280;40374;49.480;20.016;2023-07-09T18:25:51;95306.41;;;25.04;45.74
54465;BME280;40374;49.480;20.016;2023-07-09T18:28:28;95309.91;;;24.82;46.94
54465;BME280;40374;49.480;20.016;2023-07-09T18:30:56;95302.53;;;24.66;46.78
54465;BME280;40374;49.480;20.016;2023-07-09T18:33:43;95307.09;;;24.59;48.80
54465;BME280;40374;49.480;20.016;2023-07-09T18:36:10;95309.09;;;24.42;48.48
54465;BME280;40374;49.480;20.016;2023-07-09T18:38:39;95311.53;;;24.28;50.65
54465;BME280;40374;49.480;20.016;2023-07-09T18:41:16;95312.28;;;24.09;55.74
54465;BME280;40374;49.480;20.016;2023-07-09T18:43:45;95311.19;;;23.78;55.93
54465;BME280;40374;49.480;20.016;2023-07-09T18:46:13;95322.56;;;23.64;58.69
54465;BME280;40374;49.480;20.016;2023-07-09T18:48:41;95314.88;;;23.38;59.98
54465;BME280;40374;49.480;20.016;2023-07-09T18:51:10;95335.22;;;23.21;58.33
54465;BME280;40374;49.480;20.016;2023-07-09T18:53:39;95330.25;;;22.83;58.11
54465;BME280;40374;49.480;20.016;2023-07-09T18:56:06;95323.66;;;22.72;59.44
54465;BME280;40374;49.480;20.016;2023-07-09T18:58:34;95327.53;;;22.70;57.99
54465;BME280;40374;49.480;20.016;2023-07-09T19:01:18;95322.00;;;22.83;57.88
54465;BME280;40374;49.480;20.016;2023-07-09T19:03:47;95329.28;;;22.63;63.10
54465;BME280;40374;49.480;20.016;2023-07-09T19:06:14;95337.25;;;22.27;71.68
54465;BME280;40374;49.480;20.016;2023-07-09T19:08:43;95340.34;;;22.01;82.53
54465;BME280;40374;49.480;20.016;2023-07-09T19:11:10;95338.84;;;21.79;89.35
54465;BME280;40374;49.480;20.016;2023-07-09T19:13:38;95324.94;;;21.60;94.68
54465;BME280;40374;49.480;20.016;2023-07-09T19:16:21;95322.53;;;21.58;100.00
54465;BME280;40374;49.480;20.016;2023-07-09T19:18:50;95327.75;;;21.39;95.10
54465;BME280;40374;49.480;20.016;2023-07-09T19:21:18;95334.44;;;21.29;97.42
54465;BME280;40374;49.480;20.016;2023-07-09T19:23:46;95329.63;;;21.14;99.20
54465;BME280;40374;49.480;20.016;2023-07-09T19:26:14;95332.78;;;21.03;100.00
54465;BME280;40374;49.480;20.016;2023-07-09T19:28:41;95330.28;;;20.98;100.00
54465;BME280;40374;49.480;20.016;2023-07-09T19:31:11;95329.06;;;20.75;100.00
54465;BME280;40374;49.480;20.016;2023-07-09T19:33:40;95329.06;;;20.75;100.00
54465;BME280;40374;49.480;20.016;2023-07-09T19:36:21;95329.06;;;20.75;100.00
54465;BME280;40374;49.480;20.016;2023-07-09T19:38:51;95329.06;;;-145.97;100.00
54465;BME280;40374;49.480;20.016;2023-07-09T19:41:20;95333.31;;;20.21;100.00
54465;BME280;40374;49.480;20.016;2023-07-09T19:43:48;95333.31;;;20.21;100.00
54465;BME280;40374;49.480;20.016;2023-07-09T19:46:22;95330.19;;;19.81;100.00
54465;BME280;40374;49.480;20.016;2023-07-09T19:48:51;95330.19;;;19.81;100.00
54465;BME280;40374;49.480;20.016;2023-07-09T19:51:18;95330.19;;;19.81;100.00
54465;BME280;40374;49.480;20.016;2023-07-09T19:53:46;95330.19;;;19.81;100.00
54465;BME280;40374;49.480;20.016;2023-07-09T19:56:14;95340.50;;;19.28;100.00
54465;BME280;40374;49.480;20.016;2023-07-09T19:58:42;95340.50;;;19.28;100.00
54465;BME280;40374;49.480;20.016;2023-07-09T20:01:12;62409.59;;;-145.97;100.00
54465;BME280;40374;49.480;20.016;2023-07-09T20:03:41;95340.50;;;-145.97;100.00
54465;BME280;40374;49.480;20.016;2023-07-09T20:06:16;62409.59;;;-145.97;100.00
54465;BME280;40374;49.480;20.016;2023-07-09T20:08:44;62409.59;;;-145.97;100.00
54465;BME280;40374;49.480;20.016;2023-07-09T20:11:13;62409.59;;;-145.97;100.00
54465;BME280;40374;49.480;20.016;2023-07-09T20:13:41;95340.50;;;-145.97;100.00
54465;BME280;40374;49.480;20.016;2023-07-09T20:16:22;62409.59;;;-145.97;100.00
54465;BME280;40374;49.480;20.016;2023-07-09T20:18:53;62409.59;;;-145.97;100.00
54465;BME280;40374;49.480;20.016;2023-07-09T20:21:24;62409.59;;;-145.97;100.00
54465;BME280;40374;49.480;20.016;2023-07-09T20:23:52;62409.59;;;-145.97;100.00
54465;BME280;40374;49.480;20.016;2023-07-09T20:26:20;62409.59;;;-145.97;100.00
54465;BME280;40374;49.480;20.016;2023-07-09T20:28:48;62409.59;;;-145.97;100.00
54465;BME280;40374;49.480;20.016;2023-07-09T20:31:18;62409.59;;;-145.97;100.00
54465;BME280;40374;49.480;20.016;2023-07-09T20:33:47;62409.59;;;-145.97;100.00
54465;BME280;40374;49.480;20.016;2023-07-09T20:36:14;62409.59;;;-145.97;100.00
